Time;durP1;ratioP1;P1;durP2;ratioP2;P2;SDS_P1;SDS_P2;PMS_P1;PMS_P2;Temp;Humidity;BMP_temperature;BMP_pressure;BME280_temperature;BME280_humidity;BME280_pressure;Samples;Min_cycle;Max_cycle;Signal;HPM_P1;HPM_P2
2023/03/18 00:00:16;;;;;;;69.10;28.30;;;;;;;1.25;73.54;99717.39;105745;1254;74576;-24
2023/03/18 00:02:46;;;;;;;36.10;16.40;;;;;;;1.13;73.79;99716.56;105709;1253;76119;-24
2023/03/18 00:05:17;;;;;;;38.60;17.30;;;;;;;1.01;74.26;99715.40;105693;1253;74544;-24
2023/03/18 00:07:46;;;;;;;33.00;15.90;;;;;;;0.94;73.59;99724.86;105838;1253;61385;-24
2023/03/18 00:10:15;;;;;;;32.90;14.40;;;;;;;0.70;73.84;99723.19;105694;1257;61881;-24
2023/03/18 00:12:45;;;;;;;38.40;18.00;;;;;;;0.44;74.52;99726.00;105621;1253;74848;-24
2023/03/18 00:15:15;;;;;;;42.60;20.10;;;;;;;0.30;74.45;99726.41;105629;1259;75819;-24
2023/03/18 00:17:45;;;;;;;29.40;14.30;;;;;;;0.18;74.96;99725.54;105668;1258;73243;-24
2023/03/18 00:20:15;;;;;;;24.80;12.80;;;;;;;0.11;75.87;99721.59;105673;1253;61077;-24
2023/03/18 00:22:45;;;;;;;13.10;6.50;;;;;;;0.15;76.33;99719.63;105738;1253;61129;-24
2023/03/18 00:25:14;;;;;;;36.20;17.20;;;;;;;0.82;75.64;99719.05;105908;1253;74524;-24
2023/03/18 00:27:42;;;;;;;33.30;15.70;;;;;;;1.47;73.32;99720.44;105898;1256;75128;-24
2023/03/18 00:30:12;;;;;;;30.40;15.80;;;;;;;1.59;72.32;99723.97;105783;1253;73896;-24
2023/03/18 00:32:40;;;;;;;29.30;13.30;;;;;;;1.44;71.97;99720.88;105665;1253;61070;-25
2023/03/18 00:35:09;;;;;;;29.00;14.30;;;;;;;1.26;72.76;99724.02;105705;1253;61903;-24
2023/03/18 00:37:38;;;;;;;27.10;12.40;;;;;;;1.09;73.19;99719.95;105724;1253;74729;-24
2023/03/18 00:40:15;;;;;;;21.70;11.00;;;;;;;1.01;73.21;99723.97;105582;1253;76146;-24
2023/03/18 00:42:56;;;;;;;19.80;9.10;;;;;;;0.91;73.56;99722.88;105436;1253;73607;-24
2023/03/18 00:45:24;;;;;;;15.80;6.80;;;;;;;0.77;74.57;99725.89;105682;1254;61102;-24
2023/03/18 00:47:56;;;;;;;24.20;10.60;;;;;;;0.67;75.01;99726.19;105899;1258;61865;-24
2023/03/18 00:50:26;;;;;;;16.20;6.30;;;;;;;0.62;75.30;99725.84;105901;1253;74827;-24
2023/03/18 00:52:55;;;;;;;18.50;8.10;;;;;;;1.05;75.55;99723.83;105751;1254;75950;-32
2023/03/18 00:55:26;;;;;;;16.80;7.60;;;;;;;1.77;73.55;99722.85;105743;1258;74715;-24
2023/03/18 00:57:54;;;;;;;14.00;7.20;;;;;;;1.80;72.12;99717.81;105693;1253;62226;-26
2023/03/18 01:00:25;;;;;;;18.60;8.60;;;;;;;1.66;72.54;99714.70;105598;1257;61058;-25
2023/03/18 01:02:53;;;;;;;16.90;7.50;;;;;;;1.56;72.95;99711.59;105715;1253;74846;-26
2023/03/18 01:05:23;;;;;;;18.90;8.80;;;;;;;1.45;73.36;99717.77;105883;1252;75862;-25
2023/03/18 01:07:52;;;;;;;19.50;8.60;;;;;;;1.31;73.41;99718.57;105698;1253;74554;-24
2023/03/18 01:10:21;;;;;;;15.10;6.30;;;;;;;1.16;73.90;99716.67;105870;1253;61158;-24
2023/03/18 01:12:49;;;;;;;17.30;9.80;;;;;;;0.99;74.94;99715.32;105661;1259;62234;-24
2023/03/18 01:15:19;;;;;;;17.20;9.50;;;;;;;0.92;74.76;99716.73;105709;1253;74607;-24
2023/03/18 01:17:48;;;;;;;16.40;7.70;;;;;;;0.87;74.16;99722.52;105607;1253;74028;-23
2023/03/18 01:20:18;;;;;;;8.60;3.70;;;;;;;0.81;74.76;99719.45;105807;1254;74147;-23
2023/03/18 01:22:50;;;;;;;12.30;5.80;;;;;;;1.31;74.97;99721.48;105704;1257;61190;-24
2023/03/18 01:25:19;;;;;;;11.00;5.90;;;;;;;2.02;72.67;99724.05;105725;1258;61716;-24
2023/03/18 01:27:51;;;;;;;18.50;8.60;;;;;;;2.19;71.36;99722.78;105844;1256;74422;-24
2023/03/18 01:30:19;;;;;;;20.50;12.10;;;;;;;2.03;71.09;99720.60;105672;1257;75862;-24
2023/03/18 01:32:48;;;;;;;21.40;10.80;;;;;;;1.82;71.76;99725.42;105631;1255;74215;-24
2023/03/18 01:35:17;;;;;;;18.90;10.80;;;;;;;1.66;71.86;99726.66;105519;1258;61205;-24
2023/03/18 01:37:47;;;;;;;20.30;9.80;;;;;;;1.52;72.23;99729.02;105547;1255;61609;-24
2023/03/18 01:40:16;;;;;;;19.90;10.30;;;;;;;1.36;72.86;99731.25;105640;1253;74827;-23
2023/03/18 01:43:03;;;;;;;17.20;9.50;;;;;;;1.24;72.47;99732.98;105565;1258;75631;-24
2023/03/18 01:45:33;;;;;;;16.80;8.00;;;;;;;1.14;72.15;99728.17;105148;1254;74420;-23
2023/03/18 01:48:02;;;;;;;17.30;7.70;;;;;;;1.04;72.13;99734.48;105651;1253;61258;-24
2023/03/18 01:50:34;;;;;;;17.40;8.30;;;;;;;0.94;72.82;99738.01;105701;1257;61556;-24
2023/03/18 01:53:11;;;;;;;8.30;4.60;;;;;;;0.84;74.60;99740.90;105674;1253;75325;-24
2023/03/18 01:55:39;;;;;;;30.20;14.50;;;;;;;1.35;74.46;99739.82;105702;1253;75107;-23
2023/03/18 01:58:16;;;;;;;40.70;21.60;;;;;;;2.01;72.16;99740.02;105683;1253;74507;-24
2023/03/18 02:00:50;;;;;;;37.60;17.30;;;;;;;2.13;71.13;99741.34;105655;1253;61260;-24
2023/03/18 02:03:21;;;;;;;39.80;16.30;;;;;;;2.06;71.02;99742.42;105663;1258;61648;-24
2023/03/18 02:05:49;;;;;;;51.60;26.20;;;;;;;1.91;71.07;99744.14;105643;1253;75794;-23
2023/03/18 02:08:18;;;;;;;41.90;23.80;;;;;;;1.74;71.72;99745.23;105318;1253;74817;-25
2023/03/18 02:10:50;;;;;;;45.20;24.80;;;;;;;1.58;71.97;99745.59;105447;1253;74903;-25
2023/03/18 02:13:20;;;;;;;46.00;24.70;;;;;;;1.43;72.37;99745.55;105400;1258;61200;-23
2023/03/18 02:15:52;;;;;;;59.90;31.20;;;;;;;1.28;73.00;99742.80;105549;1257;62161;-24
2023/03/18 02:18:40;;;;;;;29.20;14.20;;;;;;;1.13;74.34;99748.39;105511;1253;75418;-23
2023/03/18 02:21:21;;;;;;;27.00;11.60;;;;;;;0.92;75.94;99746.96;105622;1253;76112;-24
2023/03/18 02:24:08;;;;;;;18.10;7.80;;;;;;;1.05;76.71;99751.70;105603;1253;73185;-23
2023/03/18 02:26:52;;;;;;;32.70;11.60;;;;;;;1.99;73.75;99751.92;105645;1253;61999;-23
2023/03/18 02:29:27;;;;;;;21.90;8.60;;;;;;;2.29;70.68;99747.95;105506;1253;61134;-23
2023/03/18 02:38:33;;;;;;;12.20;5.10;;;;;;;1.81;72.13;99753.23;102688;1292;600188;-23
2023/03/18 02:41:21;;;;;;;9.70;4.80;;;;;;;1.48;72.98;99758.24;105036;1266;61191;-24
2023/03/18 02:43:50;;;;;;;14.80;8.80;;;;;;;1.27;73.84;99759.60;104815;1271;62002;-25
2023/03/18 02:46:48;;;;;;;13.60;9.90;;;;;;;1.17;74.41;99761.27;105113;1268;73818;-25
2023/03/18 02:49:17;;;;;;;9.70;5.00;;;;;;;1.10;74.60;99761.15;104809;1271;76087;-25
2023/03/18 02:51:45;;;;;;;7.60;4.30;;;;;;;1.02;75.02;99760.70;103307;1271;2128378;-25
2023/03/18 02:54:17;;;;;;;7.70;4.50;;;;;;;0.98;75.05;99759.45;105123;1263;61621;-25
2023/03/18 02:56:47;;;;;;;4.60;2.60;;;;;;;0.95;75.41;99757.48;104907;1267;61863;-25
2023/03/18 02:59:18;;;;;;;8.50;3.90;;;;;;;1.57;74.38;99755.55;105003;1268;73930;-25
2023/03/18 03:01:48;;;;;;;12.30;5.10;;;;;;;2.26;71.77;99757.30;104769;1266;75112;-25
2023/03/18 03:04:16;;;;;;;8.90;4.00;;;;;;;2.48;70.36;99755.30;104571;1266;74278;-25
2023/03/18 03:06:45;;;;;;;11.00;5.10;;;;;;;2.39;70.01;99753.58;104837;1268;61729;-25
2023/03/18 03:09:15;;;;;;;11.60;5.20;;;;;;;2.08;70.84;99756.73;105105;1268;62047;-25
2023/03/18 03:11:45;;;;;;;14.70;6.30;;;;;;;1.93;71.37;99759.83;104873;1269;74533;-24
2023/03/18 03:14:17;;;;;;;18.30;7.70;;;;;;;1.78;71.86;99760.17;104798;1266;75212;-25
2023/03/18 03:16:47;;;;;;;20.00;8.70;;;;;;;1.59;72.61;99758.74;104786;1265;74086;-25
2023/03/18 03:19:16;;;;;;;22.60;9.00;;;;;;;1.36;73.79;99760.33;104777;1266;61313;-25
2023/03/18 03:21:47;;;;;;;28.10;10.40;;;;;;;1.24;74.47;99758.33;104817;1266;61475;-25
2023/03/18 03:24:16;;;;;;;16.70;8.00;;;;;;;1.22;74.06;99761.12;104791;1270;74465;-25
2023/03/18 03:26:45;;;;;;;15.50;7.60;;;;;;;1.13;74.83;99755.07;104745;1267;75768;-25
2023/03/18 03:29:14;;;;;;;9.10;4.10;;;;;;;1.09;75.38;99755.37;104786;1271;74493;-25
2023/03/18 03:31:42;;;;;;;13.50;5.90;;;;;;;1.68;74.79;99751.23;104956;1263;61108;-25
2023/03/18 03:34:12;;;;;;;21.20;8.50;;;;;;;2.40;72.13;99749.77;104770;1265;61249;-25
2023/03/18 03:36:42;;;;;;;11.10;5.70;;;;;;;2.59;70.75;99754.92;105009;1266;74649;-25
2023/03/18 03:39:11;;;;;;;11.30;5.50;;;;;;;2.47;70.55;99758.09;104801;1269;76206;-24
2023/03/18 03:41:40;;;;;;;11.50;6.40;;;;;;;2.24;71.14;99756.70;105222;1267;74476;-25
2023/03/18 03:44:08;;;;;;;14.70;7.40;;;;;;;2.09;71.62;99759.98;105152;1263;61269;-25
2023/03/18 03:46:38;;;;;;;15.40;7.60;;;;;;;1.93;72.02;99759.81;105516;1258;61846;-25
2023/03/18 03:49:06;;;;;;;15.60;8.00;;;;;;;1.81;72.02;99759.88;105566;1256;74768;-25
2023/03/18 03:51:36;;;;;;;16.70;7.90;;;;;;;1.69;72.23;99761.33;105657;1254;75997;-28
2023/03/18 03:54:05;;;;;;;17.10;7.80;;;;;;;1.54;73.27;99759.91;105594;1253;73355;-25
2023/03/18 03:56:35;;;;;;;19.80;7.80;;;;;;;1.42;73.59;99759.27;105404;1254;61190;-25
2023/03/18 03:59:03;;;;;;;13.80;6.40;;;;;;;1.33;73.93;99761.94;105699;1254;62109;-25
2023/03/18 04:01:51;;;;;;;6.10;3.30;;;;;;;1.30;73.91;99763.25;105748;1257;74653;-25
2023/03/18 04:04:21;;;;;;;10.90;4.40;;;;;;;2.00;73.67;99762.65;105413;1254;76587;-24
2023/03/18 04:06:49;;;;;;;7.90;3.90;;;;;;;2.73;71.98;99767.08;105659;1254;74485;-24
2023/03/18 04:09:18;;;;;;;6.70;4.00;;;;;;;2.90;70.74;99767.82;105640;1255;62128;-24
2023/03/18 04:11:47;;;;;;;5.50;2.70;;;;;;;2.76;70.43;99765.25;105541;1257;62074;-24
2023/03/18 04:14:16;;;;;;;4.80;3.00;;;;;;;2.56;70.55;99764.98;105698;1253;75013;-24
2023/03/18 04:16:45;;;;;;;5.10;2.90;;;;;;;2.37;70.92;99765.33;105633;1253;75620;-24
2023/03/18 04:19:16;;;;;;;6.40;3.30;;;;;;;2.17;71.31;99766.36;105483;1258;74238;-24
2023/03/18 04:21:45;;;;;;;5.80;2.90;;;;;;;1.97;71.81;99766.03;105523;1258;61244;-24
2023/03/18 04:24:13;;;;;;;6.80;3.30;;;;;;;1.79;72.81;99768.67;105578;1255;62053;-24
2023/03/18 04:26:43;;;;;;;8.70;3.70;;;;;;;1.64;73.59;99767.98;105404;1253;75157;-24
2023/03/18 04:29:11;;;;;;;8.20;3.90;;;;;;;1.52;73.83;99768.54;105879;1254;76364;-24
2023/03/18 04:31:41;;;;;;;8.10;4.10;;;;;;;1.42;73.87;99770.40;105887;1259;74679;-24
2023/03/18 04:34:09;;;;;;;5.40;2.10;;;;;;;1.38;73.88;99767.29;105688;1253;62811;-24
2023/03/18 04:36:40;;;;;;;5.20;3.10;;;;;;;1.96;74.05;99774.79;105654;1254;61726;-24
2023/03/18 04:39:08;;;;;;;6.40;3.20;;;;;;;2.60;72.53;99769.29;105563;1258;74564;-24
2023/03/18 04:41:38;;;;;;;7.40;3.60;;;;;;;2.75;71.42;99773.86;105484;1258;75905;-24
2023/03/18 04:44:08;;;;;;;6.80;3.40;;;;;;;2.66;71.11;99772.49;105589;1259;71956;-24
2023/03/18 04:46:41;;;;;;;5.10;3.80;;;;;;;2.46;71.32;99771.84;105704;1254;60979;-24
2023/03/18 04:49:10;;;;;;;6.50;3.90;;;;;;;2.22;72.19;99772.17;105695;1258;61121;-24
2023/03/18 04:51:39;;;;;;;6.50;3.90;;;;;;;2.06;72.37;99770.34;105668;1255;74808;-24
2023/03/18 04:54:15;;;;;;;7.80;3.60;;;;;;;1.91;73.14;99767.60;105550;1259;75744;-24
2023/03/18 04:56:45;;;;;;;5.70;3.50;;;;;;;1.78;73.66;99764.94;105676;1253;74456;-24
2023/03/18 04:59:20;;;;;;;6.30;2.70;;;;;;;1.69;74.10;99767.85;105541;1259;61145;-25
2023/03/18 05:01:48;;;;;;;3.00;2.00;;;;;;;1.61;74.43;99772.20;105545;1254;61833;-24
2023/03/18 05:04:17;;;;;;;4.40;3.00;;;;;;;2.12;74.41;99770.63;105495;1259;74639;-24
2023/03/18 05:06:49;;;;;;;3.60;2.10;;;;;;;2.76;72.74;99769.39;105491;1257;75907;-24
2023/03/18 05:09:19;;;;;;;5.30;2.60;;;;;;;2.90;72.00;99776.77;105345;1258;73507;-24
2023/03/18 05:11:52;;;;;;;7.30;2.80;;;;;;;2.82;71.95;99774.83;105686;1254;61836;-25
2023/03/18 05:14:27;;;;;;;4.70;2.70;;;;;;;2.63;72.13;99775.01;105785;1253;61228;-24
2023/03/18 05:16:56;;;;;;;6.20;3.20;;;;;;;2.50;72.29;99773.41;105744;1259;73896;-24
2023/03/18 05:19:27;;;;;;;8.40;4.40;;;;;;;2.34;72.80;99774.52;105655;1257;74262;-24
2023/03/18 05:22:03;;;;;;;8.50;3.90;;;;;;;2.18;73.31;99778.98;105597;1259;74219;-24
2023/03/18 05:24:31;;;;;;;10.50;5.20;;;;;;;2.05;74.22;99779.98;105498;1255;61132;-24
2023/03/18 05:27:05;;;;;;;11.80;5.00;;;;;;;1.95;74.65;99780.31;105461;1260;61535;-24
2023/03/18 05:29:39;;;;;;;7.80;3.40;;;;;;;1.93;75.41;99780.69;105496;1260;73722;-24
2023/03/18 05:32:34;;;;;;;10.50;4.30;;;;;;;2.69;74.85;99781.81;105339;1262;76167;-24
2023/03/18 05:35:04;;;;;;;9.10;4.00;;;;;;;3.34;73.09;99786.73;105527;1257;73320;-24
2023/03/18 05:37:37;;;;;;;8.50;3.50;;;;;;;3.47;71.80;99786.73;105600;1259;61430;-24
2023/03/18 05:40:10;;;;;;;7.00;4.50;;;;;;;3.24;71.90;99783.00;105718;1259;61832;-24
2023/03/18 05:42:40;;;;;;;8.90;4.50;;;;;;;3.14;72.27;99783.21;105663;1256;74186;-24
2023/03/18 05:45:23;;;;;;;7.80;4.00;;;;;;;3.01;72.47;99783.89;105650;1260;75722;-24
2023/03/18 05:47:54;;;;;;;8.30;4.80;;;;;;;2.84;72.94;99782.12;105679;1259;74151;-24
2023/03/18 05:50:30;;;;;;;10.90;4.20;;;;;;;2.72;73.70;99784.45;105511;1261;61208;-24
2023/03/18 05:53:00;;;;;;;10.40;4.40;;;;;;;2.69;74.12;99783.70;105357;1259;61647;-24
2023/03/18 05:55:31;;;;;;;4.80;2.50;;;;;;;2.68;74.45;99783.56;105368;1260;74613;-24
2023/03/18 05:58:01;;;;;;;4.70;3.00;;;;;;;3.34;74.29;99790.13;105627;1259;76199;-24
2023/03/18 06:00:30;;;;;;;6.60;3.20;;;;;;;4.01;71.38;99791.20;105523;1259;74143;-24
2023/03/18 06:03:00;;;;;;;5.60;2.90;;;;;;;4.23;70.18;99789.77;105540;1255;61975;-24
2023/03/18 06:05:30;;;;;;;5.40;3.40;;;;;;;4.05;70.03;99790.89;105504;1259;61570;-24
2023/03/18 06:07:59;;;;;;;3.10;2.80;;;;;;;3.87;70.42;99795.77;105600;1254;73523;-24
2023/03/18 06:10:29;;;;;;;5.70;3.70;;;;;;;3.70;70.81;99795.77;105488;1258;76040;-24
2023/03/18 06:12:59;;;;;;;7.20;3.10;;;;;;;3.56;71.45;99793.20;105564;1264;74246;-24
2023/03/18 06:15:30;;;;;;;6.30;3.10;;;;;;;3.40;71.95;99796.27;105653;1254;61138;-24
2023/03/18 06:18:03;;;;;;;7.20;2.80;;;;;;;3.28;72.47;99792.30;105683;1255;62100;-24
2023/03/18 06:20:33;;;;;;;4.00;2.90;;;;;;;3.24;72.02;99797.56;105532;1258;74305;-24
2023/03/18 06:23:09;;;;;;;4.60;2.50;;;;;;;3.17;72.53;99804.70;105561;1262;76161;-24
2023/03/18 06:25:40;;;;;;;3.00;2.40;;;;;;;3.18;73.14;99802.96;105682;1257;75343;-24
2023/03/18 06:28:08;;;;;;;6.70;3.70;;;;;;;3.80;71.96;99804.11;105722;1259;61869;-24
2023/03/18 06:30:37;;;;;;;6.20;3.50;;;;;;;4.21;71.02;99808.05;105553;1259;61565;-24
2023/03/18 06:33:06;;;;;;;4.90;2.40;;;;;;;4.26;70.25;99807.16;105576;1254;74651;-25
2023/03/18 06:35:36;;;;;;;7.40;2.80;;;;;;;4.19;69.85;99804.04;105611;1263;76108;-24
2023/03/18 06:38:05;;;;;;;6.30;2.80;;;;;;;3.97;70.39;99804.43;105702;1259;74569;-24
2023/03/18 06:40:33;;;;;;;7.20;3.90;;;;;;;3.83;70.69;99804.70;105725;1254;61144;-24
2023/03/18 06:43:03;;;;;;;5.40;3.80;;;;;;;3.64;71.44;99805.28;105503;1268;61883;-24
2023/03/18 06:45:37;;;;;;;4.20;2.90;;;;;;;3.53;71.73;99803.51;105516;1254;74665;-25
2023/03/18 06:48:09;;;;;;;4.80;2.20;;;;;;;3.38;72.28;99806.82;105637;1258;74717;-24
2023/03/18 06:50:42;;;;;;;3.60;2.00;;;;;;;3.66;72.16;99810.19;105672;1253;74232;-24
2023/03/18 06:53:21;;;;;;;4.60;3.10;;;;;;;4.25;70.61;99807.57;105730;1258;62046;-24
2023/03/18 06:55:50;;;;;;;5.60;3.30;;;;;;;4.46;69.93;99810.45;105503;1268;61702;-24
2023/03/18 06:58:20;;;;;;;3.80;2.90;;;;;;;4.44;69.37;99806.04;105733;1258;75484;-25
2023/03/18 07:01:02;;;;;;;5.20;3.50;;;;;;;4.30;69.70;99811.64;105731;1258;75830;-25
2023/03/18 07:03:36;;;;;;;6.20;3.80;;;;;;;4.17;69.87;99809.95;105733;1255;74215;-25
2023/03/18 07:06:06;;;;;;;8.90;4.60;;;;;;;4.03;70.26;99811.08;105691;1255;61072;-26
2023/03/18 07:08:37;;;;;;;6.30;3.60;;;;;;;3.93;70.75;99811.14;105681;1259;61068;-25
2023/03/18 07:11:06;;;;;;;6.60;3.80;;;;;;;3.87;71.02;99809.35;105402;1261;74490;-24
2023/03/18 07:13:37;;;;;;;5.10;2.60;;;;;;;3.74;71.03;99807.28;105493;1254;75942;-24
2023/03/18 07:16:09;;;;;;;7.60;3.30;;;;;;;4.09;71.53;99813.89;105570;1258;74345;-24
2023/03/18 07:18:38;;;;;;;6.70;3.60;;;;;;;4.60;69.61;99814.98;105575;1258;61158;-24
2023/03/18 07:21:10;;;;;;;7.60;4.40;;;;;;;4.70;68.49;99816.46;105606;1258;61981;-25
2023/03/18 07:23:40;;;;;;;5.50;3.50;;;;;;;4.52;68.29;99810.88;105567;1259;74947;-25
2023/03/18 07:26:09;;;;;;;7.20;4.20;;;;;;;4.25;68.90;99814.92;105516;1254;76151;-24
2023/03/18 07:28:38;;;;;;;7.70;4.50;;;;;;;4.15;69.81;99810.90;105291;1255;74186;-24
2023/03/18 07:31:07;;;;;;;6.30;4.10;;;;;;;4.14;69.57;99811.65;105493;1258;61082;-24
2023/03/18 07:33:40;;;;;;;5.50;3.90;;;;;;;3.99;70.01;99815.70;105454;1258;61785;-24
2023/03/18 07:36:10;;;;;;;4.70;3.40;;;;;;;3.85;70.51;99818.32;105517;1258;74422;-25
2023/03/18 07:38:38;;;;;;;11.60;6.30;;;;;;;3.73;70.76;99818.31;105260;1260;75067;-25
2023/03/18 07:41:07;;;;;;;7.70;4.20;;;;;;;3.62;71.46;99817.36;105533;1255;74135;-24
2023/03/18 07:43:35;;;;;;;10.80;4.40;;;;;;;4.15;71.12;99821.89;105544;1253;61217;-24
2023/03/18 07:46:05;;;;;;;10.40;3.40;;;;;;;4.74;69.20;99825.02;105637;1257;61819;-24
2023/03/18 07:48:36;;;;;;;8.90;4.90;;;;;;;4.80;67.83;99825.27;105411;1255;75234;-24
2023/03/18 07:51:04;;;;;;;10.10;5.00;;;;;;;4.73;68.33;99823.50;105787;1257;75854;-24
2023/03/18 07:53:34;;;;;;;9.20;5.10;;;;;;;4.56;68.40;99824.12;105715;1257;73341;-24
2023/03/18 07:56:03;;;;;;;5.50;3.30;;;;;;;4.27;69.18;99821.55;105899;1255;61173;-24
2023/03/18 07:58:37;;;;;;;3.80;3.00;;;;;;;4.02;69.66;99824.52;105768;1257;61987;-25
2023/03/18 08:01:06;;;;;;;10.00;5.10;;;;;;;3.77;70.38;99828.48;105681;1256;75437;-24
2023/03/18 08:03:35;;;;;;;8.90;4.50;;;;;;;3.65;71.36;99829.46;105753;1257;75960;-25
2023/03/18 08:06:04;;;;;;;17.70;8.60;;;;;;;3.67;71.39;99827.16;105607;1254;74521;-24
2023/03/18 08:08:33;;;;;;;15.10;8.10;;;;;;;3.67;71.78;99829.69;105551;1253;61183;-24
2023/03/18 08:11:05;;;;;;;34.70;19.00;;;;;;;3.72;71.20;99831.05;105490;1258;61625;-25
2023/03/18 08:13:37;;;;;;;7.40;4.30;;;;;;;4.27;70.13;99828.92;105437;1258;75354;-24
2023/03/18 08:16:06;;;;;;;4.60;3.20;;;;;;;4.87;67.86;99833.59;105471;1259;76146;-24
2023/03/18 08:18:36;;;;;;;4.80;3.10;;;;;;;4.88;67.10;99833.35;105404;1254;74734;-24
2023/03/18 08:21:06;;;;;;;4.20;3.10;;;;;;;4.84;67.26;99829.04;105565;1254;61883;-24
2023/03/18 08:23:35;;;;;;;5.70;3.60;;;;;;;4.72;67.17;99834.44;105538;1256;61913;-25
2023/03/18 08:26:04;;;;;;;8.00;4.40;;;;;;;4.55;67.88;99830.51;105594;1257;75664;-24
2023/03/18 08:28:33;;;;;;;6.60;4.30;;;;;;;4.36;68.36;99829.42;105525;1254;75314;-24
2023/03/18 08:31:03;;;;;;;7.70;4.00;;;;;;;4.19;69.04;99830.33;105525;1254;74454;-24
2023/03/18 08:33:33;;;;;;;5.60;3.70;;;;;;;4.10;69.37;99833.47;105616;1254;61052;-24
2023/03/18 08:36:01;;;;;;;11.10;6.30;;;;;;;4.04;69.84;99832.85;105431;1260;61629;-25
2023/03/18 08:38:30;;;;;;;16.00;9.50;;;;;;;4.00;70.38;99835.41;105534;1254;75678;-25
2023/03/18 08:40:58;;;;;;;15.00;9.10;;;;;;;3.93;70.51;99836.23;105489;1261;76140;-24
2023/03/18 08:43:27;;;;;;;2.00;1.80;;;;;;;3.96;70.45;99839.02;105640;1257;74441;-24
2023/03/18 08:45:56;;;;;;;4.50;3.20;;;;;;;4.39;69.81;99843.75;105568;1253;61151;-24
2023/03/18 08:56:01;;;;;;;6.90;4.20;;;;;;;4.60;68.13;99844.25;102711;1292;599485;-23
2023/03/18 08:58:30;;;;;;;4.50;3.50;;;;;;;4.46;68.43;99842.42;104877;1270;62030;-23
2023/03/18 09:01:01;;;;;;;6.90;4.90;;;;;;;4.35;68.96;99843.08;104879;1266;61889;-25
2023/03/18 09:03:33;;;;;;;9.90;7.20;;;;;;;4.17;69.58;99844.34;104924;1266;72586;-23
2023/03/18 09:06:02;;;;;;;6.70;4.60;;;;;;;4.00;70.04;99842.96;105594;1257;76143;-23
2023/03/18 09:08:31;;;;;;;6.30;4.20;;;;;;;3.95;70.47;99839.42;104115;1258;2016238;-23
2023/03/18 09:10:59;;;;;;;4.20;2.80;;;;;;;3.96;70.95;99841.94;105554;1255;61285;-23
2023/03/18 09:13:28;;;;;;;5.60;3.50;;;;;;;4.50;69.24;99842.25;105698;1256;62537;-23
2023/03/18 09:16:03;;;;;;;7.80;4.00;;;;;;;4.88;67.99;99843.50;105588;1254;73323;-23
2023/03/18 09:18:34;;;;;;;4.10;3.00;;;;;;;4.94;67.83;99844.30;105575;1254;75971;-23
2023/03/18 09:21:03;;;;;;;5.40;4.20;;;;;;;4.90;67.66;99842.70;105627;1261;74170;-23
2023/03/18 09:23:33;;;;;;;5.20;3.80;;;;;;;4.76;67.80;99841.45;105516;1256;61126;-23
2023/03/18 09:26:02;;;;;;;5.40;3.70;;;;;;;4.70;67.96;99843.58;105648;1254;61852;-23
2023/03/18 09:28:35;;;;;;;6.10;4.20;;;;;;;4.54;68.81;99845.37;105622;1258;74847;-23
2023/03/18 09:31:04;;;;;;;6.30;4.80;;;;;;;4.51;69.05;99846.02;105685;1254;75593;-24
2023/03/18 09:33:35;;;;;;;6.20;4.50;;;;;;;4.54;69.02;99843.96;105640;1254;74442;-24
2023/03/18 09:36:05;;;;;;;7.30;4.80;;;;;;;4.49;69.19;99841.61;105611;1254;60984;-24
2023/03/18 09:38:34;;;;;;;7.80;5.30;;;;;;;4.41;69.49;99839.38;105553;1255;61164;-25
2023/03/18 09:41:10;;;;;;;6.20;4.40;;;;;;;4.32;69.54;99843.54;105585;1255;73575;-24
2023/03/18 09:43:47;;;;;;;4.50;3.40;;;;;;;4.72;69.21;99841.63;105633;1254;75883;-24
2023/03/18 09:46:40;;;;;;;6.20;4.30;;;;;;;5.22;67.50;99839.73;105658;1254;73952;-24
2023/03/18 09:49:23;;;;;;;6.90;4.20;;;;;;;5.28;66.76;99838.95;105631;1260;61217;-24
2023/03/18 09:52:00;;;;;;;6.70;4.90;;;;;;;5.17;66.81;99842.35;105591;1254;61064;-24
2023/03/18 09:54:58;;;;;;;5.40;3.90;;;;;;;5.05;67.03;99842.75;105620;1257;74569;-24
2023/03/18 09:57:41;;;;;;;5.90;4.30;;;;;;;4.89;67.53;99840.35;105614;1259;76352;-25
2023/03/18 10:00:25;;;;;;;8.80;5.30;;;;;;;4.76;68.43;99835.97;105616;1257;74505;-24
2023/03/18 10:02:53;;;;;;;8.20;4.90;;;;;;;4.70;68.10;99839.80;105634;1256;61100;-24
2023/03/18 10:05:47;;;;;;;7.40;4.80;;;;;;;4.65;68.11;99835.21;105625;1260;61858;-24
2023/03/18 10:08:38;;;;;;;5.90;4.50;;;;;;;4.50;68.69;99833.98;105537;1257;74641;-25
2023/03/18 10:11:25;;;;;;;6.60;4.90;;;;;;;4.41;69.15;99835.44;105572;1262;75647;-25
2023/03/18 10:13:56;;;;;;;;;;;;;;;4.42;69.12;99838.63;105611;1256;73462;-25
2023/03/18 10:16:28;;;;;;;4.30;3.40;;;;;;;4.80;68.50;99843.52;105531;1257;61064;-25
2023/03/18 10:18:56;;;;;;;7.20;5.00;;;;;;;5.15;67.30;99841.42;105413;1257;61069;-25
2023/03/18 10:21:49;;;;;;;6.90;5.10;;;;;;;5.27;66.95;99838.13;105672;1257;74814;-24
2023/03/18 10:24:50;;;;;;;5.70;4.20;;;;;;;5.30;66.63;99834.88;105540;1257;74935;-25
2023/03/18 10:27:52;;;;;;;8.90;6.00;;;;;;;5.21;66.40;99834.07;105615;1257;74298;-24
2023/03/18 10:30:49;;;;;;;7.70;6.40;;;;;;;5.01;67.07;99830.38;105642;1257;61695;-24
2023/03/18 10:33:45;;;;;;;8.20;6.30;;;;;;;4.82;67.82;99830.55;105629;1255;61204;-24
2023/03/18 10:36:22;;;;;;;17.80;10.00;;;;;;;4.66;68.50;99830.23;105570;1259;74835;-24
2023/03/18 10:38:52;;;;;;;11.40;7.10;;;;;;;4.66;68.91;99826.23;105592;1257;75921;-24
2023/03/18 10:41:32;;;;;;;15.40;7.20;;;;;;;4.70;68.74;99827.42;105508;1262;74014;-23
2023/03/18 10:44:06;;;;;;;14.10;10.70;;;;;;;4.68;68.58;99823.05;105566;1257;61248;-24
2023/03/18 10:46:34;;;;;;;21.70;12.30;;;;;;;4.52;69.16;99820.81;105518;1257;61148;-24
2023/03/18 10:49:07;;;;;;;8.60;5.80;;;;;;;4.56;69.28;99815.69;105540;1257;74386;-24
2023/03/18 10:51:42;;;;;;;11.60;7.30;;;;;;;5.01;68.20;99815.71;105395;1257;76026;-24
2023/03/18 10:54:32;;;;;;;8.20;5.40;;;;;;;5.39;67.20;99812.23;105212;1256;74288;-24
2023/03/18 10:57:02;;;;;;;11.40;6.40;;;;;;;5.27;66.77;99814.02;105315;1263;61592;-24
2023/03/18 10:59:30;;;;;;;11.60;8.10;;;;;;;5.20;67.00;99813.64;105575;1260;61948;-24
2023/03/18 11:02:03;;;;;;;7.30;5.00;;;;;;;5.14;66.67;99811.84;105546;1256;73778;-24
2023/03/18 11:04:41;;;;;;;11.40;7.40;;;;;;;4.89;67.47;99808.71;105545;1256;75966;-24
2023/03/18 11:07:17;;;;;;;11.10;6.90;;;;;;;4.87;67.88;99810.52;105248;1256;74534;-24
2023/03/18 11:09:46;;;;;;;9.90;6.50;;;;;;;4.93;67.69;99810.76;105288;1256;61240;-24
2023/03/18 11:12:17;;;;;;;8.90;6.20;;;;;;;4.78;67.73;99807.31;105574;1260;61704;-25
2023/03/18 11:14:47;;;;;;;5.40;3.10;;;;;;;4.57;68.12;99805.63;105292;1256;74610;-24
2023/03/18 11:17:19;;;;;;;12.80;6.60;;;;;;;4.62;68.35;99805.95;105064;1261;76472;-25
2023/03/18 11:19:49;;;;;;;9.80;7.10;;;;;;;4.60;68.99;99806.39;105188;1256;73481;-24
2023/03/18 11:22:18;;;;;;;6.90;4.40;;;;;;;4.62;68.42;99805.11;105374;1256;61138;-24
2023/03/18 11:25:10;;;;;;;5.90;4.10;;;;;;;5.02;68.12;99802.10;105507;1261;61804;-25
2023/03/18 11:27:47;;;;;;;7.00;5.60;;;;;;;5.49;66.29;99794.55;105609;1256;74608;-24
2023/03/18 11:30:21;;;;;;;6.50;5.00;;;;;;;5.63;65.16;99795.27;105101;1256;76109;-24
2023/03/18 11:33:04;;;;;;;7.30;4.80;;;;;;;5.58;65.41;99796.55;105203;1256;73186;-24
2023/03/18 11:35:42;;;;;;;5.50;4.30;;;;;;;5.50;65.81;99799.67;105197;1256;61873;-24
2023/03/18 11:38:35;;;;;;;8.10;6.00;;;;;;;5.36;65.83;99800.85;105381;1261;61861;-24
2023/03/18 11:41:07;;;;;;;8.00;5.30;;;;;;;5.26;66.31;99797.38;105627;1256;74556;-25
2023/03/18 11:43:37;;;;;;;7.40;4.20;;;;;;;5.25;66.38;99799.16;105569;1256;76166;-25
2023/03/18 11:46:08;;;;;;;7.30;5.60;;;;;;;5.18;66.47;99797.39;105608;1257;74327;-25
2023/03/18 11:48:38;;;;;;;6.30;5.00;;;;;;;5.20;67.15;99797.84;109198;1260;59965;-24
2023/03/18 11:51:23;;;;;;;6.70;4.60;;;;;;;5.30;66.47;99795.24;109048;1256;60107;-24
2023/03/18 11:54:23;;;;;;;7.80;5.30;;;;;;;5.34;66.25;99795.60;109087;1255;73903;-24
2023/03/18 11:56:57;;;;;;;7.50;5.50;;;;;;;5.42;66.58;99797.77;109120;1256;74155;-24
2023/03/18 11:59:41;;;;;;;7.10;5.20;;;;;;;5.54;67.42;99794.13;109193;1255;73771;-24
2023/03/18 12:02:30;;;;;;;6.30;5.00;;;;;;;5.65;66.38;99792.56;109138;1254;58891;-24
2023/03/18 12:05:20;;;;;;;9.70;6.80;;;;;;;5.76;65.73;99788.06;109131;1254;59979;-24
2023/03/18 12:08:19;;;;;;;8.90;6.20;;;;;;;5.78;65.47;99794.84;109226;1255;72500;-24